Bayonet Point, Florida
Current Conditions -  °F | °C
As of 11:53 AM on Saturday 22 Nov 2014 (Local Time) from KBKV Reporting Station
Overcast Overcast  
Wind Chill: 66°   Ceiling: 3400
Heat Index: 66°   Visibility: 10mi
Dew Point: 64°   Wind: 15mph
Humidity: 93%   Direction: 70°ENE
Pressure: 30.24"   Gusts: NA
Location:  28.33°N, 82.7°W
Report Text: KBKV 221653Z AUTO 07013KT 10SM BKN034 BKN041 OVC048 19/18 A3024 RMK AO2 RAE52 SLP237 P0019 T01890178
Loading
Personal Weather Stations






























Interactive Weather Map New forecast layout! Learn more

10-Day Weather Forecast

Advertisements
Track Severe Weather on mobile